createdAt,value
2017-04-05T00:00:15.269Z,8.13
2017-04-05T00:01:25.208Z,8.1
2017-04-05T00:02:35.266Z,8.07
2017-04-05T00:03:45.179Z,7.99
2017-04-05T00:04:55.095Z,8.06
2017-04-05T00:06:04.776Z,7.97
2017-04-05T00:07:14.051Z,7.91
2017-04-05T00:08:24.057Z,7.88
2017-04-05T00:09:33.694Z,7.97
2017-04-05T00:10:43.616Z,7.87
2017-04-05T00:11:53.826Z,7.85
2017-04-05T00:13:03.759Z,7.84
2017-04-05T00:14:13.704Z,7.8
2017-04-05T00:15:23.650Z,7.85
2017-04-05T00:16:33.849Z,7.87
2017-04-05T00:17:43.378Z,7.8
2017-04-05T00:18:53.318Z,7.74
2017-04-05T00:20:02.952Z,7.85
2017-04-05T00:21:12.893Z,7.74
2017-04-05T00:22:22.932Z,7.72
2017-04-05T00:23:33.301Z,7.76
2017-04-05T00:24:43.235Z,7.84
2017-04-05T00:25:52.600Z,7.76
2017-04-05T00:27:02.527Z,7.79
2017-04-05T00:28:12.486Z,7.79
2017-04-05T00:29:22.705Z,7.74
2017-04-05T00:30:32.629Z,7.76
2017-04-05T00:31:42.529Z,7.77
2017-04-05T00:32:52.555Z,7.77
2017-04-05T00:34:02.137Z,7.73
2017-04-05T00:35:11.653Z,7.73
2017-04-05T00:36:20.988Z,7.73
2017-04-05T00:37:30.592Z,7.74
2017-04-05T00:38:40.250Z,7.62
2017-04-05T00:39:50.189Z,7.66
2017-04-05T00:40:59.702Z,7.64
2017-04-05T00:42:08.991Z,7.62
2017-04-05T00:43:18.626Z,7.56
2017-04-05T00:44:28.535Z,7.52
2017-04-05T00:45:37.876Z,7.48
2017-04-05T00:46:48.086Z,7.51
2017-04-05T00:47:57.675Z,7.48
2017-04-05T00:49:07.260Z,7.44
2017-04-05T00:50:16.889Z,7.43
2017-04-05T00:51:26.838Z,7.43
2017-04-05T00:52:36.838Z,7.41
2017-04-05T00:53:46.097Z,7.33
2017-04-05T00:54:55.999Z,7.29
2017-04-05T00:56:05.917Z,7.33
2017-04-05T00:57:16.122Z,7.26
2017-04-05T00:58:26.392Z,7.22
2017-04-05T00:59:35.988Z,7.21
2017-04-05T01:00:45.958Z,7.21
2017-04-05T01:01:56.005Z,7.31
2017-04-05T01:03:05.937Z,7.29
2017-04-05T01:04:16.099Z,7.28
2017-04-05T01:05:25.381Z,7.26
2017-04-05T01:06:34.958Z,7.29
2017-04-05T01:07:44.914Z,7.26
2017-04-05T01:08:54.818Z,7.26
2017-04-05T01:10:04.726Z,7.28
2017-04-05T01:11:14.717Z,7.26
2017-04-05T01:12:23.977Z,7.26
2017-04-05T01:13:33.556Z,7.21
2017-04-05T01:14:43.637Z,7.15
2017-04-05T01:15:53.877Z,7.22
2017-04-05T01:17:03.804Z,7.21
2017-04-05T01:18:13.751Z,7.22
2017-04-05T01:19:23.675Z,7.13
2017-04-05T01:20:33.605Z,7.17
2017-04-05T01:21:43.857Z,7.14
2017-04-05T01:22:53.759Z,7.17
2017-04-05T01:24:03.695Z,7.03
2017-04-05T01:25:13.664Z,6.99
2017-04-05T01:26:23.639Z,7.05
2017-04-05T01:27:33.862Z,7.06
2017-04-05T01:28:43.911Z,7.02
2017-04-05T01:29:53.813Z,7.02
2017-04-05T01:31:03.123Z,7
2017-04-05T01:32:13.150Z,7.03
2017-04-05T01:33:23.400Z,7.02
2017-04-05T01:34:33.019Z,7.02
2017-04-05T01:35:42.663Z,7
2017-04-05T01:36:52.649Z,6.99
2017-04-05T01:38:02.554Z,6.99
2017-04-05T01:39:12.147Z,7.03
2017-04-05T01:40:21.726Z,7
2017-04-05T01:41:31.689Z,7.03
2017-04-05T01:42:41.674Z,7.15
2017-04-05T01:43:51.572Z,7.1
2017-04-05T01:45:01.855Z,7
2017-04-05T01:46:11.761Z,7.1
2017-04-05T01:47:21.363Z,7.11
2017-04-05T01:48:31.303Z,7.14
2017-04-05T01:49:41.247Z,7.13
2017-04-05T01:50:51.441Z,7.11
2017-04-05T01:52:01.452Z,7.13
2017-04-05T01:53:11.033Z,7.13
2017-04-05T01:54:20.992Z,7.22
2017-04-05T01:55:30.932Z,7.15
2017-04-05T01:56:40.809Z,7.21
2017-04-05T01:57:50.388Z,7.14
2017-04-05T01:58:59.341Z,7.26
2017-04-05T02:00:09.249Z,7.18
2017-04-05T02:01:18.521Z,7.2
2017-04-05T02:02:28.400Z,7.17
2017-04-05T02:03:38.322Z,7.21
2017-04-05T02:04:47.921Z,7.15
2017-04-05T02:05:57.881Z,7.18
2017-04-05T02:07:07.182Z,7.21
2017-04-05T02:08:17.432Z,7.15
2017-04-05T02:09:27.335Z,7.17
2017-04-05T02:10:36.948Z,7.18
2017-04-05T02:11:46.208Z,7.24
2017-04-05T02:12:55.511Z,7.2
2017-04-05T02:14:05.445Z,7.22
2017-04-05T02:15:15.369Z,7.21
2017-04-05T02:16:24.997Z,7.24
2017-04-05T02:17:34.900Z,7.26
2017-04-05T02:18:44.498Z,7.28
2017-04-05T02:19:54.364Z,7.29
2017-04-05T02:21:04.322Z,7.33
2017-04-05T02:22:14.012Z,7.21
2017-04-05T02:23:24.010Z,7.26
2017-04-05T02:24:33.596Z,7.33
2017-04-05T02:25:43.718Z,7.33
2017-04-05T02:26:53.655Z,7.41
2017-04-05T02:28:03.323Z,7.36
2017-04-05T02:29:12.913Z,7.43
2017-04-05T02:30:22.859Z,7.52
2017-04-05T02:31:32.765Z,7.52
2017-04-05T02:32:42.693Z,7.47
2017-04-05T02:33:52.070Z,7.51
2017-04-05T02:35:01.988Z,7.54
2017-04-05T02:36:11.583Z,7.51
2017-04-05T02:37:21.849Z,7.41
2017-04-05T02:38:31.803Z,7.43
2017-04-05T02:39:41.749Z,7.47
2017-04-05T02:40:51.366Z,7.51
2017-04-05T02:42:01.316Z,7.51
2017-04-05T02:43:11.461Z,7.48
2017-04-05T02:44:21.360Z,7.47
2017-04-05T02:45:31.321Z,7.47
2017-04-05T02:46:41.235Z,7.49
2017-04-05T02:47:51.172Z,7.58
2017-04-05T02:49:01.497Z,7.56
2017-04-05T02:50:11.381Z,7.52
2017-04-05T02:51:21.303Z,7.62
2017-04-05T02:52:31.208Z,7.62
2017-04-05T02:53:41.182Z,7.69
2017-04-05T02:54:51.087Z,7.61
2017-04-05T02:56:01.045Z,7.67
2017-04-05T02:57:10.626Z,7.64
2017-04-05T02:58:20.538Z,7.58
2017-04-05T02:59:30.426Z,7.7
2017-04-05T03:00:40.365Z,7.62
2017-04-05T03:01:50.261Z,7.59
2017-04-05T03:03:00.187Z,7.59
2017-04-05T03:04:10.184Z,7.56
2017-04-05T03:05:19.758Z,7.64
2017-04-05T03:06:29.625Z,7.66
2017-04-05T03:07:39.528Z,7.66
2017-04-05T03:08:49.504Z,7.76
2017-04-05T03:09:59.120Z,7.76
2017-04-05T03:11:09.100Z,7.72
2017-04-05T03:12:19.323Z,7.7
2017-04-05T03:13:29.387Z,7.7
2017-04-05T03:14:39.380Z,7.67
2017-04-05T03:15:49.406Z,7.73
2017-04-05T03:16:59.009Z,7.8
2017-04-05T03:18:08.852Z,7.66
2017-04-05T03:19:18.763Z,7.74
2017-04-05T03:20:28.738Z,7.73
2017-04-05T03:21:38.672Z,7.69
2017-04-05T03:22:48.638Z,7.74
2017-04-05T03:23:58.889Z,7.72
2017-04-05T03:25:08.496Z,7.67
2017-04-05T03:26:17.765Z,7.76
2017-04-05T03:27:27.684Z,7.7
2017-04-05T03:28:37.261Z,7.74
2017-04-05T03:29:47.164Z,7.7
2017-04-05T03:30:56.751Z,7.74
2017-04-05T03:32:06.673Z,7.67
2017-04-05T03:33:16.590Z,7.73
2017-04-05T03:34:26.176Z,7.74
2017-04-05T03:35:36.010Z,7.69
2017-04-05T03:36:45.944Z,7.72
2017-04-05T03:37:55.564Z,7.77
2017-04-05T03:39:05.495Z,7.76
2017-04-05T03:40:15.394Z,7.74
2017-04-05T03:41:25.254Z,7.7
2017-04-05T03:42:34.833Z,7.77
2017-04-05T03:43:44.466Z,7.76
2017-04-05T03:44:53.737Z,7.77
2017-04-05T03:46:03.763Z,7.79
2017-04-05T03:47:13.675Z,7.67
2017-04-05T03:48:23.599Z,7.7
2017-04-05T03:49:33.533Z,7.69
2017-04-05T03:50:43.439Z,7.74
2017-04-05T03:51:53.347Z,7.64
2017-04-05T03:53:03.207Z,7.62
2017-04-05T03:54:13.150Z,7.58
2017-04-05T03:55:23.111Z,7.61
2017-04-05T03:56:33.110Z,7.58
2017-04-05T03:57:42.378Z,7.56
2017-04-05T03:58:52.524Z,7.41
2017-04-05T04:00:02.108Z,7.52
2017-04-05T04:01:11.374Z,7.48
2017-04-05T04:02:21.083Z,7.37
2017-04-05T04:03:30.988Z,7.41
2017-04-05T04:04:41.137Z,7.33
2017-04-05T04:05:51.111Z,7.39
2017-04-05T04:07:01.014Z,7.29
2017-04-05T04:08:10.360Z,7.28
2017-04-05T04:09:20.285Z,7.15
2017-04-05T04:10:30.592Z,7.22
2017-04-05T04:11:40.176Z,7.17
2017-04-05T04:12:49.696Z,7.15
2017-04-05T04:13:59.646Z,7.21
2017-04-05T04:15:09.591Z,7.17
2017-04-05T04:16:19.855Z,7.13
2017-04-05T04:17:29.434Z,7.13
2017-04-05T04:18:39.349Z,7.11
2017-04-05T04:19:48.610Z,7.06
2017-04-05T04:20:58.243Z,7.1
2017-04-05T04:22:08.431Z,7.06
2017-04-05T04:23:18.381Z,6.97
2017-04-05T04:24:28.408Z,6.97
2017-04-05T04:25:38.313Z,7
2017-04-05T04:26:47.938Z,7.06
2017-04-05T04:27:57.807Z,7.02
2017-04-05T04:29:07.707Z,6.97
2017-04-05T04:30:17.616Z,7.02
2017-04-05T04:31:27.259Z,6.96
2017-04-05T04:32:37.199Z,6.95
2017-04-05T04:33:46.721Z,6.96
2017-04-05T04:34:56.315Z,6.95
2017-04-05T04:36:06.237Z,6.89
2017-04-05T04:37:16.208Z,6.9
2017-04-05T04:38:25.796Z,6.87
2017-04-05T04:39:35.636Z,6.97
2017-04-05T04:40:45.237Z,6.87
2017-04-05T04:41:55.225Z,6.85
2017-04-05T04:43:04.906Z,6.79
2017-04-05T04:44:14.813Z,6.82
2017-04-05T04:45:24.652Z,6.85
2017-04-05T04:46:34.562Z,6.81
2017-04-05T04:47:44.605Z,6.77
2017-04-05T04:48:53.861Z,6.74
2017-04-05T04:50:03.762Z,6.78
2017-04-05T04:51:13.922Z,6.81
2017-04-05T04:52:23.904Z,6.77
2017-04-05T04:53:33.955Z,6.75
2017-04-05T04:54:43.865Z,6.77
2017-04-05T04:55:53.763Z,6.64
2017-04-05T04:57:03.736Z,6.62
2017-04-05T04:58:13.642Z,6.75
2017-04-05T04:59:23.441Z,6.77
2017-04-05T05:00:33.385Z,6.74
2017-04-05T05:01:42.403Z,6.79
2017-04-05T05:02:52.282Z,6.78
2017-04-05T05:04:02.263Z,6.82
2017-04-05T05:05:11.900Z,6.67
2017-04-05T05:06:21.482Z,6.78
2017-04-05T05:07:31.413Z,6.77
2017-04-05T05:08:41.599Z,6.78
2017-04-05T05:09:51.493Z,6.77
2017-04-05T05:11:01.119Z,6.77
2017-04-05T05:12:11.023Z,6.74
2017-04-05T05:13:20.653Z,6.81
2017-04-05T05:14:30.493Z,6.84
2017-04-05T05:15:40.427Z,6.87
2017-04-05T05:16:50.046Z,6.79
2017-04-05T05:18:00.035Z,6.84
2017-04-05T05:19:10.030Z,6.81
2017-04-05T05:20:20.251Z,6.77
2017-04-05T05:21:30.215Z,6.85
2017-04-05T05:22:39.486Z,6.85
2017-04-05T05:23:49.384Z,6.85
2017-04-05T05:24:58.976Z,6.87
2017-04-05T05:26:09.195Z,6.93
2017-04-05T05:27:19.092Z,6.89
2017-04-05T05:28:28.898Z,6.92
2017-04-05T05:29:38.571Z,6.9
2017-04-05T05:30:48.200Z,6.96
2017-04-05T05:31:58.111Z,6.92
2017-04-05T05:33:08.070Z,6.97
2017-04-05T05:34:17.722Z,6.93
2017-04-05T05:35:27.639Z,6.96
2017-04-05T05:36:37.421Z,6.97
2017-04-05T05:37:47.665Z,7.03
2017-04-05T05:38:57.560Z,7
2017-04-05T05:40:07.209Z,7.13
2017-04-05T05:41:17.161Z,7
2017-04-05T05:42:27.143Z,7.15
2017-04-05T05:43:37.449Z,7.11
2017-04-05T05:44:47.408Z,7.21
2017-04-05T05:45:57.022Z,7.15
2017-04-05T05:47:06.939Z,7.2
2017-04-05T05:48:16.848Z,7.24
2017-04-05T05:49:26.712Z,7.26
2017-04-05T05:50:36.311Z,7.31
2017-04-05T05:51:46.220Z,7.29
2017-04-05T05:52:55.197Z,7.37
2017-04-05T05:54:04.460Z,7.43
2017-04-05T05:55:14.706Z,7.48
2017-04-05T05:56:24.602Z,7.49
2017-04-05T05:57:34.199Z,7.55
2017-04-05T05:58:44.109Z,7.61
2017-04-05T05:59:54.083Z,7.67
2017-04-05T06:01:04.238Z,7.64
2017-04-05T06:02:14.288Z,7.79
2017-04-05T06:03:23.920Z,7.76
2017-04-05T06:04:33.919Z,7.76
2017-04-05T06:05:43.253Z,7.85
2017-04-05T06:06:53.487Z,7.87
2017-04-05T06:08:03.091Z,7.85
2017-04-05T06:09:12.707Z,7.8
2017-04-05T06:10:22.682Z,7.9
2017-04-05T06:11:32.607Z,7.88
2017-04-05T06:12:42.491Z,8.07
2017-04-05T06:13:52.451Z,8.03
2017-04-05T06:15:02.456Z,8.12
2017-04-05T06:16:12.418Z,8.15
2017-04-05T06:17:22.009Z,8.23
2017-04-05T06:18:32.249Z,8.28
2017-04-05T06:19:41.899Z,8.34
2017-04-05T06:20:51.522Z,8.28
2017-04-05T06:22:01.469Z,8.34
2017-04-05T06:23:11.371Z,8.42
2017-04-05T06:24:20.624Z,8.43
2017-04-05T06:25:30.213Z,8.49
2017-04-05T06:26:39.804Z,8.49
2017-04-05T06:27:48.772Z,8.58
2017-04-05T06:28:58.089Z,8.57
2017-04-05T06:30:08.275Z,8.64
2017-04-05T06:31:17.556Z,8.61
2017-04-05T06:32:27.470Z,8.58
2017-04-05T06:33:37.705Z,8.67
2017-04-05T06:34:47.707Z,8.66
2017-04-05T06:35:57.925Z,8.71
2017-04-05T06:37:07.928Z,8.71
2017-04-05T06:38:18.013Z,8.71
2017-04-05T06:39:27.798Z,8.75
2017-04-05T06:40:37.706Z,8.71
2017-04-05T06:41:47.919Z,8.84
2017-04-05T06:42:57.858Z,8.9
2017-04-05T06:44:07.792Z,8.79
2017-04-05T06:45:17.703Z,8.89
2017-04-05T06:46:27.357Z,8.95
2017-04-05T06:47:37.540Z,8.98
2017-04-05T06:48:47.130Z,9.05
2017-04-05T06:49:57.068Z,9.09
2017-04-05T06:51:07.125Z,9.08
2017-04-05T06:52:16.749Z,9.08
2017-04-05T06:53:26.671Z,9.07
2017-04-05T06:54:36.629Z,9.16
2017-04-05T06:55:46.569Z,9.25
2017-04-05T06:56:56.499Z,9.23
2017-04-05T06:58:06.398Z,9.27
2017-04-05T06:59:16.277Z,9.27
2017-04-05T07:00:25.538Z,9.34
2017-04-05T07:01:35.454Z,9.33
2017-04-05T07:02:45.393Z,9.34
2017-04-05T07:03:55.342Z,9.34
2017-04-05T07:05:05.519Z,9.44
2017-04-05T07:06:15.425Z,9.44
2017-04-05T07:07:25.022Z,9.38
2017-04-05T07:08:34.660Z,9.5
2017-04-05T07:09:44.384Z,9.55
2017-04-05T07:10:54.265Z,9.55
2017-04-05T07:12:04.203Z,9.6
2017-04-05T07:13:14.283Z,9.67
2017-04-05T07:14:24.229Z,9.83
2017-04-05T07:15:34.144Z,9.8
2017-04-05T07:16:44.317Z,9.83
2017-04-05T07:17:54.243Z,9.88
2017-04-05T07:19:03.832Z,9.92
2017-04-05T07:20:13.428Z,9.96
2017-04-05T07:21:23.328Z,10
2017-04-05T07:22:33.253Z,9.99
2017-04-05T07:23:43.247Z,9.99
2017-04-05T07:24:53.141Z,10.11
2017-04-05T07:26:02.531Z,10.17
2017-04-05T07:27:11.795Z,10.19
2017-04-05T07:28:21.680Z,10.21
2017-04-05T07:29:30.979Z,10.18
2017-04-05T07:30:40.670Z,10.33
2017-04-05T07:31:50.253Z,10.33
2017-04-05T07:33:00.168Z,10.34
2017-04-05T07:34:10.327Z,10.34
2017-04-05T07:35:19.946Z,10.22
2017-04-05T07:36:29.569Z,10.29
2017-04-05T07:37:39.495Z,10.4
2017-04-05T07:38:49.494Z,10.45
2017-04-05T07:39:59.647Z,10.54
2017-04-05T07:41:09.231Z,10.72
2017-04-05T07:42:18.823Z,10.8
2017-04-05T07:43:28.796Z,10.97
2017-04-05T07:44:39.350Z,11.1
2017-04-05T07:45:50.157Z,11.33
2017-04-05T07:47:00.012Z,11.34
2017-04-05T07:48:10.266Z,11.49
2017-04-05T07:49:21.756Z,11.58
2017-04-05T07:50:32.325Z,11.72
2017-04-05T07:51:42.787Z,11.71
2017-04-05T07:52:53.021Z,11.8
2017-04-05T07:54:04.241Z,11.69
2017-04-05T07:55:14.775Z,11.74
2017-04-05T07:56:25.352Z,11.76
2017-04-05T07:57:35.757Z,11.66
2017-04-05T07:58:46.273Z,11.68
2017-04-05T07:59:56.801Z,11.77
2017-04-05T08:01:07.549Z,11.8
2017-04-05T08:02:19.090Z,11.86
2017-04-05T08:03:29.529Z,11.77
2017-04-05T08:04:40.068Z,11.77
2017-04-05T08:05:50.619Z,11.8
2017-04-05T08:07:01.286Z,11.82
2017-04-05T08:08:11.466Z,11.82
2017-04-05T08:09:21.935Z,11.95
2017-04-05T08:10:32.125Z,12.41
2017-04-05T08:11:41.994Z,13.01
2017-04-05T08:12:52.251Z,13.51
2017-04-05T08:14:03.527Z,14.02
2017-04-05T08:15:14.466Z,14.52
2017-04-05T08:16:24.977Z,15.17
2017-04-05T08:17:35.644Z,15.57
2017-04-05T08:18:47.221Z,15.76
2017-04-05T08:19:57.436Z,15.95
2017-04-05T08:21:08.336Z,16.14
2017-04-05T08:22:18.363Z,16.43
2017-04-05T08:23:28.257Z,16.31
2017-04-05T08:24:38.498Z,16.2
2017-04-05T08:25:49.196Z,16.1
2017-04-05T08:27:00.084Z,16.06
2017-04-05T08:28:10.585Z,16.2
2017-04-05T08:29:20.381Z,16.42
2017-04-05T08:30:31.190Z,16.5
2017-04-05T08:31:41.857Z,16.61
2017-04-05T08:32:52.446Z,16.72
2017-04-05T08:34:02.668Z,16.89
2017-04-05T08:35:12.880Z,17.21
2017-04-05T08:36:23.397Z,17.21
2017-04-05T08:37:33.565Z,17.02
2017-04-05T08:38:43.969Z,16.96
2017-04-05T08:39:54.169Z,16.93
2017-04-05T08:41:04.736Z,16.66
2017-04-05T08:42:16.205Z,16.5
2017-04-05T08:43:26.123Z,16.42
2017-04-05T08:44:36.568Z,16.13
2017-04-05T08:45:46.707Z,15.84
2017-04-05T08:46:57.279Z,15.68
2017-04-05T08:48:07.435Z,15.51
2017-04-05T08:49:18.248Z,15.32
2017-04-05T08:50:29.768Z,15.15
2017-04-05T08:51:39.940Z,14.91
2017-04-05T08:52:50.176Z,14.75
2017-04-05T08:54:00.694Z,14.67
2017-04-05T08:55:10.929Z,14.75
2017-04-05T08:56:21.287Z,15.09
2017-04-05T08:57:31.791Z,15.46
2017-04-05T08:58:42.331Z,15.66
2017-04-05T08:59:52.850Z,15.51
2017-04-05T09:01:02.357Z,15.66
2017-04-05T09:02:13.111Z,16.14
2017-04-05T09:03:23.294Z,16.68
2017-04-05T09:04:33.867Z,17.16
2017-04-05T09:05:45.377Z,17.85
2017-04-05T09:06:55.592Z,18.38
2017-04-05T09:08:06.384Z,18.97
2017-04-05T09:09:17.066Z,19.49
2017-04-05T09:10:27.266Z,19.82
2017-04-05T09:11:37.792Z,19.95
2017-04-05T09:12:48.320Z,19.8
2017-04-05T09:13:59.209Z,19.86
2017-04-05T09:15:09.713Z,20.03
2017-04-05T09:16:20.256Z,20.41
2017-04-05T09:17:30.135Z,20.66
2017-04-05T09:18:40.719Z,20.46
2017-04-05T09:19:51.495Z,20.11
2017-04-05T09:21:02.143Z,19.93
2017-04-05T09:22:12.686Z,19.71
2017-04-05T09:23:23.253Z,19.82
2017-04-05T09:24:33.190Z,19.67
2017-04-05T09:25:44.060Z,19.74
2017-04-05T09:26:54.636Z,19.89
2017-04-05T09:28:05.184Z,19.64
2017-04-05T09:29:15.421Z,19.74
2017-04-05T09:30:25.320Z,19.31
2017-04-05T09:31:35.769Z,19.25
2017-04-05T09:32:46.017Z,19.15
2017-04-05T09:33:56.758Z,19.19
2017-04-05T09:35:07.290Z,19.13
2017-04-05T09:36:17.842Z,18.69
2017-04-05T09:37:28.624Z,18.67
2017-04-05T09:38:39.198Z,18.44
2017-04-05T09:39:48.998Z,18.35
2017-04-05T09:40:59.502Z,18.52
2017-04-05T09:42:10.028Z,18.63
2017-04-05T09:43:20.856Z,18.4
2017-04-05T09:44:31.378Z,17.98
2017-04-05T09:45:41.960Z,17.92
2017-04-05T09:46:52.562Z,17.92
2017-04-05T09:48:02.541Z,17.87
2017-04-05T09:49:13.028Z,18.15
2017-04-05T09:50:24.528Z,18.19
2017-04-05T09:51:34.756Z,18.26
2017-04-05T09:52:45.347Z,18.34
2017-04-05T09:53:55.860Z,18.32
2017-04-05T09:55:06.409Z,18.38
2017-04-05T09:56:16.611Z,18.38
2017-04-05T09:57:27.151Z,18.4
2017-04-05T09:58:37.648Z,18.4
2017-04-05T09:59:49.144Z,18.3
2017-04-05T10:00:59.912Z,18.28
2017-04-05T10:02:10.454Z,18.22
2017-04-05T10:03:21.011Z,18.19
2017-04-05T10:04:30.805Z,18.25
2017-04-05T10:05:41.355Z,18.42
2017-04-05T10:06:51.840Z,18.56
2017-04-05T10:08:02.030Z,18.94
2017-04-05T10:09:12.605Z,19.3
2017-04-05T10:10:23.120Z,19.58
2017-04-05T10:11:33.744Z,19.71
2017-04-05T10:12:44.246Z,19.71
2017-04-05T10:13:54.815Z,19.78
2017-04-05T10:15:05.000Z,19.86
2017-04-05T10:16:15.241Z,19.83
2017-04-05T10:17:25.777Z,19.76
2017-04-05T10:18:35.908Z,19.65
2017-04-05T10:19:46.101Z,19.55
2017-04-05T10:20:56.720Z,19.23
2017-04-05T10:22:07.228Z,19.02
2017-04-05T10:23:17.869Z,18.53
2017-04-05T10:24:29.717Z,18.28
2017-04-05T10:25:39.938Z,17.91
2017-04-05T10:26:50.640Z,17.7
2017-04-05T10:28:01.206Z,17.45
2017-04-05T10:29:11.036Z,17.3
2017-04-05T10:30:22.868Z,17.08
2017-04-05T10:31:33.059Z,16.8
2017-04-05T10:32:43.579Z,16.5
2017-04-05T10:33:54.188Z,16.32
2017-04-05T10:35:04.750Z,15.95
2017-04-05T10:36:15.562Z,15.88
2017-04-05T10:37:26.131Z,15.69
2017-04-05T10:38:36.704Z,15.73
2017-04-05T10:39:47.239Z,15.6
2017-04-05T10:40:57.779Z,15.63
2017-04-05T10:42:08.544Z,15.64
2017-04-05T10:43:18.724Z,15.64
2017-04-05T10:44:29.296Z,15.66
2017-04-05T10:45:39.848Z,15.84
2017-04-05T10:46:50.125Z,15.92
2017-04-05T10:48:00.882Z,16.17
2017-04-05T10:49:11.294Z,16.28
2017-04-05T10:50:21.835Z,16.49
2017-04-05T10:51:32.458Z,16.44
2017-04-05T10:52:42.083Z,16.46
2017-04-05T10:53:52.602Z,16.47
2017-04-05T10:55:03.154Z,16.35
2017-04-05T10:56:13.411Z,16.28
2017-04-05T10:57:23.557Z,16.24
2017-04-05T10:58:33.453Z,16.09
2017-04-05T10:59:44.309Z,15.88
2017-04-05T11:00:54.602Z,15.69
2017-04-05T11:02:05.156Z,15.66
2017-04-05T11:03:15.823Z,15.55
2017-04-05T11:04:26.431Z,15.39
2017-04-05T11:05:37.294Z,15.24
2017-04-05T11:06:47.858Z,15.24
2017-04-05T11:07:58.458Z,15.2
2017-04-05T11:09:08.724Z,15.2
2017-04-05T11:10:18.912Z,15.3
2017-04-05T11:11:29.698Z,15.4
2017-04-05T11:12:40.216Z,15.46
2017-04-05T11:13:50.752Z,15.45
2017-04-05T11:15:01.487Z,15.51
2017-04-05T11:16:12.013Z,15.54
2017-04-05T11:17:22.475Z,15.66
2017-04-05T11:18:32.797Z,15.75
2017-04-05T11:19:44.016Z,15.55
2017-04-05T11:20:54.589Z,15.54
2017-04-05T11:22:04.718Z,15.58
2017-04-05T11:23:15.059Z,15.46
2017-04-05T11:24:24.991Z,15.57
2017-04-05T11:25:35.512Z,15.46
2017-04-05T11:26:47.127Z,15.4
2017-04-05T11:27:57.071Z,15.45
2017-04-05T11:29:07.894Z,15.25
2017-04-05T11:30:18.402Z,15.13
2017-04-05T11:31:29.144Z,14.96
2017-04-05T11:32:39.721Z,14.87
2017-04-05T11:33:49.912Z,14.78
2017-04-05T11:35:00.454Z,14.78
2017-04-05T11:36:11.005Z,14.74
2017-04-05T11:37:21.517Z,14.72
2017-04-05T11:38:32.058Z,14.75
2017-04-05T11:39:42.637Z,14.8
2017-04-05T11:40:54.176Z,14.74
2017-04-05T11:42:04.733Z,14.67
2017-04-05T11:43:14.699Z,14.66
2017-04-05T11:44:25.208Z,14.51
2017-04-05T11:45:35.727Z,14.39
2017-04-05T11:46:45.887Z,14.29
2017-04-05T11:47:56.073Z,14.22
2017-04-05T11:49:06.606Z,14.18
2017-04-05T11:50:17.134Z,14.16
2017-04-05T11:51:27.006Z,13.99
2017-04-05T11:52:38.808Z,13.81
2017-04-05T11:53:49.006Z,13.76
2017-04-05T11:54:59.539Z,13.7
2017-04-05T11:56:09.600Z,13.61
2017-04-05T11:57:21.131Z,13.58
2017-04-05T11:58:31.983Z,13.66
2017-04-05T11:59:42.537Z,13.67
2017-04-05T12:00:53.067Z,13.63
2017-04-05T12:02:03.773Z,13.66
2017-04-05T12:03:14.282Z,13.59
2017-04-05T12:04:25.125Z,13.61
2017-04-05T12:05:35.625Z,13.66
2017-04-05T12:06:46.161Z,13.64
2017-04-05T12:07:57.743Z,13.7
2017-04-05T12:09:08.359Z,13.61
2017-04-05T12:10:18.796Z,13.48
2017-04-05T12:11:28.667Z,13.45
2017-04-05T12:12:39.293Z,13.54
2017-04-05T12:13:49.520Z,13.49
2017-04-05T12:15:01.012Z,13.51
2017-04-05T12:16:11.836Z,13.54
2017-04-05T12:17:22.402Z,13.56
2017-04-05T12:18:32.615Z,13.51
2017-04-05T12:19:42.879Z,13.48
2017-04-05T12:20:53.086Z,13.36
2017-04-05T12:22:03.272Z,13.36
2017-04-05T12:23:13.820Z,13.33
2017-04-05T12:24:24.046Z,13.15
2017-04-05T12:25:34.636Z,13.04
2017-04-05T12:26:45.171Z,12.97
2017-04-05T12:27:55.331Z,12.84
2017-04-05T12:29:05.542Z,12.82
2017-04-05T12:30:16.089Z,12.8
2017-04-05T12:31:26.635Z,12.92
2017-04-05T12:32:37.353Z,12.7
2017-04-05T12:33:48.162Z,12.64
2017-04-05T12:34:58.475Z,12.55
2017-04-05T12:36:09.005Z,12.53
2017-04-05T12:37:20.164Z,12.56
2017-04-05T12:38:30.379Z,12.47
2017-04-05T12:39:41.174Z,12.5
2017-04-05T12:40:51.698Z,12.5
2017-04-05T12:42:02.270Z,12.35
2017-04-05T12:45:30.230Z,12.41
2017-04-05T12:46:40.769Z,12.32
2017-04-05T12:47:51.558Z,12.24
2017-04-05T12:49:01.786Z,12.2
2017-04-05T12:50:11.718Z,12.16
2017-04-05T12:51:22.520Z,12.09
2017-04-05T12:52:33.033Z,12.08
2017-04-05T12:53:43.587Z,12.13
2017-04-05T12:54:53.884Z,12.08
2017-04-05T12:56:03.996Z,12.07
2017-04-05T12:57:14.275Z,12.09
2017-04-05T12:58:24.214Z,12.07
2017-04-05T12:59:33.180Z,12.04
2017-04-05T13:00:43.123Z,11.99
2017-04-05T13:01:52.414Z,11.9
2017-04-05T13:03:02.616Z,11.9
2017-04-05T13:04:12.205Z,11.9
2017-04-05T13:05:21.481Z,11.98
2017-04-05T13:06:31.424Z,11.86
2017-04-05T13:07:41.335Z,11.74
2017-04-05T13:08:51.607Z,11.66
2017-04-05T13:10:01.278Z,11.69
2017-04-05T13:11:10.921Z,11.69
2017-04-05T13:12:20.512Z,11.59
2017-04-05T13:13:30.445Z,11.59
2017-04-05T13:14:40.619Z,11.62
2017-04-05T13:15:50.320Z,11.61
2017-04-05T13:17:00.241Z,11.59
2017-04-05T13:18:09.606Z,11.59
2017-04-05T13:19:19.585Z,11.45
2017-04-05T13:20:29.438Z,11.52
2017-04-05T13:21:38.400Z,11.49
2017-04-05T13:22:47.708Z,11.45
2017-04-05T13:23:57.343Z,11.57
2017-04-05T13:25:07.280Z,11.48
2017-04-05T13:26:16.842Z,11.48
2017-04-05T13:27:26.526Z,11.42
2017-04-05T13:28:36.448Z,11.45
2017-04-05T13:29:46.386Z,11.45
2017-04-05T13:30:56.345Z,11.48
2017-04-05T13:32:06.555Z,11.49
2017-04-05T13:33:16.154Z,11.52
2017-04-05T13:34:25.775Z,11.49
2017-04-05T13:35:35.727Z,11.43
2017-04-05T13:36:45.013Z,11.35
2017-04-05T13:37:54.270Z,11.43
2017-04-05T13:39:04.182Z,11.38
2017-04-05T13:40:13.812Z,11.42
2017-04-05T13:41:23.726Z,11.38
2017-04-05T13:42:33.677Z,11.35
2017-04-05T13:43:43.859Z,11.12
2017-04-05T13:44:53.849Z,11.1
2017-04-05T13:46:03.792Z,11.06
2017-04-05T13:47:12.795Z,10.94
2017-04-05T13:48:22.734Z,10.83
2017-04-05T13:49:32.899Z,10.84
2017-04-05T13:50:42.847Z,10.92
2017-04-05T13:51:52.161Z,10.79
2017-04-05T13:53:01.474Z,10.84
2017-04-05T13:54:11.396Z,10.83
2017-04-05T13:55:21.282Z,10.87
2017-04-05T13:56:31.195Z,10.9
2017-04-05T13:57:41.117Z,10.88
2017-04-05T13:58:51.084Z,10.98
2017-04-05T14:00:01.011Z,11.06
2017-04-05T14:01:10.949Z,11
2017-04-05T14:02:20.930Z,11.08
2017-04-05T14:03:30.849Z,10.95
2017-04-05T14:04:40.481Z,11.08
2017-04-05T14:05:50.122Z,11.03
2017-04-05T14:07:00.340Z,11.12
2017-04-05T14:08:10.336Z,11.02
2017-04-05T14:09:20.259Z,11.06
2017-04-05T14:10:30.212Z,11
2017-04-05T14:11:40.214Z,10.94
2017-04-05T14:12:50.056Z,10.97
2017-04-05T14:14:00.068Z,10.94
2017-04-05T14:15:10.006Z,10.88
2017-04-05T14:16:19.776Z,10.94
2017-04-05T14:17:29.710Z,10.83
2017-04-05T14:18:39.883Z,10.84
2017-04-05T14:19:49.636Z,10.84
2017-04-05T14:20:59.243Z,10.8
2017-04-05T14:22:08.855Z,10.84
2017-04-05T14:23:18.783Z,10.73
2017-04-05T14:24:29.100Z,10.7
2017-04-05T14:25:39.134Z,10.69
2017-04-05T14:26:49.064Z,10.69
2017-04-05T14:27:59.100Z,10.72
2017-04-05T14:29:09.024Z,10.67
2017-04-05T14:30:18.939Z,10.67
2017-04-05T14:31:28.552Z,10.7
2017-04-05T14:32:38.159Z,10.75
2017-04-05T14:33:48.088Z,10.8
2017-04-05T14:34:57.692Z,10.84
2017-04-05T14:36:07.612Z,10.79
2017-04-05T14:37:17.542Z,10.83
2017-04-05T14:38:27.159Z,10.7
2017-04-05T14:39:36.830Z,10.73
2017-04-05T14:40:46.800Z,10.73
2017-04-05T14:41:56.750Z,10.7
2017-04-05T14:43:06.411Z,10.69
2017-04-05T14:44:16.513Z,10.66
2017-04-05T14:45:26.442Z,10.59
2017-04-05T14:46:36.427Z,10.58
2017-04-05T14:47:46.758Z,10.55
2017-04-05T14:48:56.693Z,10.5
2017-04-05T14:50:06.632Z,10.55
2017-04-05T14:51:16.343Z,10.57
2017-04-05T14:52:26.308Z,10.58
2017-04-05T14:53:36.572Z,10.57
2017-04-05T14:54:46.545Z,10.59
2017-04-05T14:55:56.501Z,10.57
2017-04-05T14:57:06.577Z,10.61
2017-04-05T14:58:16.285Z,10.5
2017-04-05T14:59:26.463Z,10.52
2017-04-05T15:00:36.483Z,10.47
2017-04-05T15:01:46.414Z,10.37
2017-04-05T15:02:56.356Z,10.27
2017-04-05T15:04:05.981Z,10.29
2017-04-05T15:05:15.861Z,10.32
2017-04-05T15:06:25.507Z,10.29
2017-04-05T15:07:35.542Z,10.19
2017-04-05T15:08:45.132Z,10.17
2017-04-05T15:09:55.085Z,10.21
2017-04-05T15:11:05.304Z,10.18
2017-04-05T15:12:15.269Z,10.24
2017-04-05T15:13:24.912Z,10.17
2017-04-05T15:14:34.867Z,10.15
2017-04-05T15:15:44.496Z,10.18
2017-04-05T15:16:54.417Z,10.11
2017-04-05T15:18:04.579Z,10.18
2017-04-05T15:19:14.215Z,10.17
2017-04-05T15:20:23.849Z,10.17
2017-04-05T15:21:33.906Z,10.17
2017-04-05T15:22:44.082Z,10.18